Time;durP1;ratioP1;P1;durP2;ratioP2;P2;SDS_P1;SDS_P2;PMS_P1;PMS_P2;Temp;Humidity;BMP_temperature;BMP_pressure;BME280_temperature;BME280_humidity;BME280_pressure;Samples;Min_cycle;Max_cycle;Signal;HPM_P1;HPM_P2
2022/01/22 00:02:23;;;;;;;9.57;6.13;;;;;;;;;;5045661;28;20564;-81
2022/01/22 00:04:49;;;;;;;6.85;5.72;;;;;;;;;;5043635;28;20515;-81
2022/01/22 00:07:15;;;;;;;5.68;5.03;;;;;;;;;;5043610;28;20189;-81
2022/01/22 00:09:48;;;;;;;5.28;4.65;;;;;;;;;;5045477;28;20207;-81
2022/01/22 00:12:26;;;;;;;7.75;5.78;;;;;;;;;;5043919;28;20205;-81
2022/01/22 00:14:52;;;;;;;7.45;5.10;;;;;;;;;;5044179;28;20182;-81
2022/01/22 00:17:18;;;;;;;9.68;5.68;;;;;;;;;;5043442;28;20189;-81
2022/01/22 00:19:44;;;;;;;6.18;4.90;;;;;;;;;;5044575;28;20185;-81
2022/01/22 00:22:10;;;;;;;7.25;5.10;;;;;;;;;;5045533;28;20201;-81
2022/01/22 00:24:39;;;;;;;6.03;4.35;;;;;;;;;;5044098;28;20185;-81
2022/01/22 00:27:05;;;;;;;9.90;4.65;;;;;;;;;;5044278;28;20567;-81
2022/01/22 00:29:32;;;;;;;7.53;5.18;;;;;;;;;;5043410;28;20205;-81
2022/01/22 00:31:58;;;;;;;8.70;4.80;;;;;;;;;;5044807;28;20189;-81
2022/01/22 00:34:24;;;;;;;6.95;4.60;;;;;;;;;;5042077;28;20260;-81
2022/01/22 00:36:50;;;;;;;6.68;5.18;;;;;;;;;;5045438;28;20178;-81
2022/01/22 00:39:16;;;;;;;5.03;4.28;;;;;;;;;;5045205;28;20201;-81
2022/01/22 00:41:42;;;;;;;8.38;6.38;;;;;;;;;;5043522;28;20193;-81
2022/01/22 00:44:08;;;;;;;6.93;4.45;;;;;;;;;;5043226;28;20189;-81
2022/01/22 00:46:34;;;;;;;6.15;5.05;;;;;;;;;;5043728;28;20240;-81
2022/01/22 00:49:00;;;;;;;5.38;4.57;;;;;;;;;;5044222;28;20197;-81
2022/01/22 00:51:26;;;;;;;6.63;4.97;;;;;;;;;;5045742;28;20212;-81
2022/01/22 00:53:52;;;;;;;8.70;5.28;;;;;;;;;;5043801;28;20189;-81
2022/01/22 00:56:18;;;;;;;5.97;4.70;;;;;;;;;;5042358;28;20186;-81
2022/01/22 00:58:44;;;;;;;3.75;3.45;;;;;;;;;;5038270;28;20262;-81
2022/01/22 01:01:10;;;;;;;9.43;4.32;;;;;;;;;;5044208;28;20193;-81
2022/01/22 01:03:37;;;;;;;6.75;3.88;;;;;;;;;;5043854;28;20543;-81
2022/01/22 01:06:03;;;;;;;8.13;3.55;;;;;;;;;;5044347;28;20185;-81
2022/01/22 01:08:32;;;;;;;6.00;3.88;;;;;;;;;;5042243;28;20248;-81
2022/01/22 01:10:58;;;;;;;5.03;3.53;;;;;;;;;;5042583;28;20177;-81
2022/01/22 01:13:26;;;;;;;4.50;4.10;;;;;;;;;;5044111;28;20182;-81
2022/01/22 01:16:01;;;;;;;5.60;4.10;;;;;;;;;;5041565;28;20178;-81
2022/01/22 01:32:20;;;;;;;4.60;3.85;;;;;;;;;;5001268;28;20210;-81
2022/01/22 01:34:48;;;;;;;6.05;4.00;;;;;;;;;;5000249;28;20205;-81
2022/01/22 01:37:17;;;;;;;3.70;3.10;;;;;;;;;;5001768;28;20194;-81
2022/01/22 01:39:46;;;;;;;5.55;3.67;;;;;;;;;;4986071;28;20183;-81
2022/01/22 01:42:26;;;;;;;7.40;3.85;;;;;;;;;;5002218;28;20681;-81
2022/01/22 01:44:52;;;;;;;5.03;3.67;;;;;;;;;;4984878;28;20229;-81
2022/01/22 01:47:19;;;;;;;7.97;3.47;;;;;;;;;;4983810;28;20219;-81
2022/01/22 01:49:45;;;;;;;5.35;3.70;;;;;;;;;;4984816;28;20206;-81
2022/01/22 01:52:17;;;;;;;6.03;4.03;;;;;;;;;;4985733;28;20198;-81
2022/01/22 01:59:56;;;;;;;4.78;2.83;;;;;;;;;;5019553;28;20209;-81
2022/01/22 02:02:24;;;;;;;5.90;3.00;;;;;;;;;;5002800;28;20667;-81
2022/01/22 02:04:50;;;;;;;7.10;3.45;;;;;;;;;;5001821;28;20186;-81
2022/01/22 02:07:16;;;;;;;6.32;3.40;;;;;;;;;;5004137;28;20182;-81
2022/01/22 02:09:43;;;;;;;3.30;2.97;;;;;;;;;;5004615;28;20554;-81
2022/01/22 02:12:19;;;;;;;3.28;2.92;;;;;;;;;;5003123;28;20179;-81
2022/01/22 02:25:44;;;;;;;3.90;2.90;;;;;;;;;;5020288;28;20193;-81
2022/01/22 02:28:12;;;;;;;7.43;3.08;;;;;;;;;;5002822;28;20272;-81
2022/01/22 02:30:42;;;;;;;6.85;2.95;;;;;;;;;;5006164;28;20210;-81
2022/01/22 02:35:50;;;;;;;3.15;2.85;;;;;;;;;;5020331;28;20182;-81
2022/01/22 02:38:23;;;;;;;3.33;2.90;;;;;;;;;;5004900;28;20634;-81
2022/01/22 02:40:50;;;;;;;4.00;2.90;;;;;;;;;;5002312;28;20225;-81
2022/01/22 02:43:17;;;;;;;7.03;2.83;;;;;;;;;;5000387;28;20194;-81
2022/01/22 02:45:45;;;;;;;3.28;2.58;;;;;;;;;;5022436;28;20193;-81
2022/01/22 02:48:11;;;;;;;5.78;3.20;;;;;;;;;;5055248;28;20220;-81
2022/01/22 02:50:38;;;;;;;5.63;2.78;;;;;;;;;;5040158;28;20669;-82
2022/01/22 02:53:05;;;;;;;5.13;3.42;;;;;;;;;;5041040;28;20177;-81
2022/01/22 02:55:31;;;;;;;4.25;2.50;;;;;;;;;;5041220;28;20327;-81
2022/01/22 02:57:58;;;;;;;4.72;2.72;;;;;;;;;;5041281;28;20189;-81
2022/01/22 03:00:25;;;;;;;4.05;2.70;;;;;;;;;;5055909;28;20196;-82
2022/01/22 03:02:51;;;;;;;5.00;2.50;;;;;;;;;;5040931;28;20216;-82
2022/01/22 03:05:17;;;;;;;6.72;2.63;;;;;;;;;;5041459;28;20186;-82
2022/01/22 03:07:49;;;;;;;3.20;2.90;;;;;;;;;;5042431;28;20186;-82
2022/01/22 03:10:18;;;;;;;5.22;2.90;;;;;;;;;;5024859;28;20221;-81
2022/01/22 03:14:02;;;;;;;2.90;2.40;;;;;;;;;;5040769;28;20183;-81
2022/01/22 03:18:36;;;;;;;4.75;2.90;;;;;;;;;;5046538;28;20232;-81
2022/01/22 03:29:06;;;;;;;4.45;2.70;;;;;;;;;;5045890;28;20279;-82
2022/01/22 03:31:33;;;;;;;2.60;2.40;;;;;;;;;;5045260;28;20181;-81
2022/01/22 03:33:59;;;;;;;7.20;3.00;;;;;;;;;;5044423;28;20227;-81
2022/01/22 03:36:29;;;;;;;3.85;2.95;;;;;;;;;;5045498;28;20169;-82
2022/01/22 03:38:55;;;;;;;4.60;2.70;;;;;;;;;;5043641;28;20216;-81
2022/01/22 03:41:23;;;;;;;5.35;2.90;;;;;;;;;;5045335;28;20217;-82
2022/01/22 03:43:50;;;;;;;10.27;3.13;;;;;;;;;;5044137;28;20237;-81
2022/01/22 03:46:16;;;;;;;4.22;3.55;;;;;;;;;;5043154;28;20256;-81
2022/01/22 03:48:42;;;;;;;7.05;2.80;;;;;;;;;;5044538;28;20198;-81
2022/01/22 03:51:08;;;;;;;4.95;2.70;;;;;;;;;;5044195;28;20182;-82
2022/01/22 03:53:34;;;;;;;4.65;3.20;;;;;;;;;;5043416;28;20182;-82
2022/01/22 03:56:04;;;;;;;6.13;3.22;;;;;;;;;;5045381;28;20190;-81
2022/01/22 03:58:38;;;;;;;3.95;2.97;;;;;;;;;;5044098;28;20270;-82
2022/01/22 04:03:41;;;;;;;9.95;4.80;;;;;;;;;;5046547;28;20470;-82
2022/01/22 04:08:37;;;;;;;7.00;4.57;;;;;;;;;;5045332;28;20205;-82
2022/01/22 04:11:08;;;;;;;5.90;3.80;;;;;;;;;;5043233;28;20186;-82
2022/01/22 04:13:35;;;;;;;8.15;4.95;;;;;;;;;;5043583;28;20217;-82
2022/01/22 04:16:01;;;;;;;5.90;4.35;;;;;;;;;;5044419;28;20177;-82
2022/01/22 04:27:27;;;;;;;6.45;3.97;;;;;;;;;;5044371;28;20677;-82
2022/01/22 04:29:30;;;;;;;7.22;4.47;;;;;;;;;;5033704;28;20265;-81
2022/01/22 04:31:56;;;;;;;6.15;4.60;;;;;;;;;;5043711;28;20216;-81
2022/01/22 04:34:22;;;;;;;8.45;4.00;;;;;;;;;;5040894;28;20206;-81
2022/01/22 04:36:48;;;;;;;6.75;4.00;;;;;;;;;;5045231;28;20169;-82
2022/01/22 04:39:14;;;;;;;5.37;4.13;;;;;;;;;;5045165;28;20642;-82
2022/01/22 04:41:40;;;;;;;5.82;4.38;;;;;;;;;;5044403;28;20482;-82
2022/01/22 04:44:08;;;;;;;4.82;4.15;;;;;;;;;;5044616;28;20190;-82
2022/01/22 04:46:49;;;;;;;5.75;4.20;;;;;;;;;;5044977;28;20737;-81
2022/01/22 04:52:34;;;;;;;4.38;3.63;;;;;;;;;;5031628;28;20197;-81
2022/01/22 04:54:59;;;;;;;6.70;4.72;;;;;;;;;;5041884;28;20184;-81
2022/01/22 04:57:25;;;;;;;5.20;4.18;;;;;;;;;;5029136;28;20193;-81
2022/01/22 04:59:51;;;;;;;11.50;4.70;;;;;;;;;;5028744;28;20635;-82
2022/01/22 05:02:17;;;;;;;6.25;4.78;;;;;;;;;;5039335;28;20464;-81
2022/01/22 05:04:43;;;;;;;4.70;4.30;;;;;;;;;;5027915;28;20182;-81
2022/01/22 05:07:10;;;;;;;5.43;4.90;;;;;;;;;;5028268;28;20312;-81
2022/01/22 05:09:36;;;;;;;6.22;4.55;;;;;;;;;;5026873;28;20575;-81
2022/01/22 05:12:04;;;;;;;6.38;4.85;;;;;;;;;;5027318;28;20196;-81
2022/01/22 05:14:30;;;;;;;4.95;4.45;;;;;;;;;;5029312;28;20174;-82
2022/01/22 05:16:58;;;;;;;9.30;5.53;;;;;;;;;;5046112;28;20190;-82
2022/01/22 05:19:46;;;;;;;5.15;4.35;;;;;;;;;;5046554;28;20253;-81
2022/01/22 05:22:37;;;;;;;9.25;4.90;;;;;;;;;;5044239;28;20189;-81
2022/01/22 05:25:02;;;;;;;5.40;4.55;;;;;;;;;;5041977;28;20193;-82
2022/01/22 05:32:48;;;;;;;9.55;5.40;;;;;;;;;;5039289;28;20260;-81
2022/01/22 05:37:59;;;;;;;6.93;4.30;;;;;;;;;;5045006;28;20259;-81
2022/01/22 05:40:26;;;;;;;6.82;4.70;;;;;;;;;;5027685;28;20187;-81
2022/01/22 05:42:52;;;;;;;6.30;4.70;;;;;;;;;;5025874;28;20268;-81
2022/01/22 05:45:18;;;;;;;6.32;4.97;;;;;;;;;;5043924;28;20170;-81
2022/01/22 05:47:45;;;;;;;8.55;4.80;;;;;;;;;;5037658;28;20232;-81
2022/01/22 05:50:25;;;;;;;6.78;5.38;;;;;;;;;;5042062;28;20205;-81
2022/01/22 05:52:58;;;;;;;4.35;3.70;;;;;;;;;;5042957;28;20184;-81
2022/01/22 06:00:54;;;;;;;10.25;5.35;;;;;;;;;;5042684;28;20217;-81
2022/01/22 06:03:20;;;;;;;7.75;4.82;;;;;;;;;;5042662;28;20188;-81
2022/01/22 06:05:46;;;;;;;11.88;5.18;;;;;;;;;;5042791;28;20224;-81
2022/01/22 06:08:16;;;;;;;6.07;4.70;;;;;;;;;;5041598;28;20181;-82
2022/01/22 06:10:45;;;;;;;7.40;4.65;;;;;;;;;;5041637;28;20655;-82
2022/01/22 06:15:37;;;;;;;6.67;5.63;;;;;;;;;;5042819;28;20201;-81
2022/01/22 06:18:03;;;;;;;5.75;5.20;;;;;;;;;;5042679;28;20440;-81
2022/01/22 06:20:29;;;;;;;6.45;5.40;;;;;;;;;;5042596;28;20189;-82
2022/01/22 06:22:55;;;;;;;15.85;6.00;;;;;;;;;;5041249;28;20181;-82
2022/01/22 06:25:21;;;;;;;9.73;6.00;;;;;;;;;;5041619;28;20199;-82
2022/01/22 06:27:47;;;;;;;4.97;4.50;;;;;;;;;;5041460;28;20188;-81
2022/01/22 06:30:13;;;;;;;6.60;5.15;;;;;;;;;;5041680;28;20455;-82
2022/01/22 06:32:39;;;;;;;9.25;5.30;;;;;;;;;;5041231;28;20186;-82
2022/01/22 06:35:05;;;;;;;6.30;4.75;;;;;;;;;;5041410;28;20213;-82
2022/01/22 06:37:31;;;;;;;5.70;5.20;;;;;;;;;;5039942;28;20186;-82
2022/01/22 06:42:33;;;;;;;8.85;5.95;;;;;;;;;;5041877;28;20202;-82
2022/01/22 06:44:59;;;;;;;8.55;6.38;;;;;;;;;;5040538;28;20204;-82
2022/01/22 06:47:26;;;;;;;6.85;5.07;;;;;;;;;;5042043;28;20285;-81
2022/01/22 06:49:52;;;;;;;7.78;6.97;;;;;;;;;;5041358;28;20233;-82
2022/01/22 06:52:18;;;;;;;9.93;6.63;;;;;;;;;;5046273;28;20201;-82
2022/01/22 06:54:45;;;;;;;12.23;7.47;;;;;;;;;;5045926;28;20212;-82
2022/01/22 06:57:11;;;;;;;8.82;6.38;;;;;;;;;;5046165;28;20420;-82
2022/01/22 06:59:38;;;;;;;9.27;6.60;;;;;;;;;;5045258;28;20546;-82
2022/01/22 07:02:04;;;;;;;8.40;6.45;;;;;;;;;;5044542;28;20200;-82
2022/01/22 07:04:31;;;;;;;8.95;6.97;;;;;;;;;;5044780;28;20197;-81
2022/01/22 07:06:57;;;;;;;9.57;6.70;;;;;;;;;;5047134;28;20173;-82
2022/01/22 07:09:23;;;;;;;12.52;7.13;;;;;;;;;;5044038;28;20201;-82
2022/01/22 07:11:49;;;;;;;8.45;6.28;;;;;;;;;;5044038;28;20264;-82
2022/01/22 07:14:16;;;;;;;11.15;6.22;;;;;;;;;;5034323;28;20209;-82
2022/01/22 07:16:42;;;;;;;9.52;5.85;;;;;;;;;;5035550;28;20521;-82
2022/01/22 07:19:08;;;;;;;8.30;6.35;;;;;;;;;;5046194;28;20265;-82
2022/01/22 07:21:36;;;;;;;7.90;5.72;;;;;;;;;;5044395;28;20209;-82
2022/01/22 07:26:29;;;;;;;7.50;6.78;;;;;;;;;;5045592;28;20217;-82
2022/01/22 07:28:55;;;;;;;7.10;6.00;;;;;;;;;;5045857;28;20217;-82
2022/01/22 07:31:23;;;;;;;7.13;5.50;;;;;;;;;;5045938;28;20214;-82
2022/01/22 07:33:50;;;;;;;6.75;5.22;;;;;;;;;;5045406;28;20173;-81
2022/01/22 07:36:16;;;;;;;9.65;5.45;;;;;;;;;;5043620;28;20178;-82
2022/01/22 07:38:42;;;;;;;7.20;5.38;;;;;;;;;;5041486;28;20196;-81
2022/01/22 07:41:09;;;;;;;8.77;5.95;;;;;;;;;;5039140;28;20186;-81
2022/01/22 07:43:35;;;;;;;10.75;6.93;;;;;;;;;;5041583;28;20228;-82
2022/01/22 07:46:01;;;;;;;12.18;6.28;;;;;;;;;;5043287;28;20178;-82
2022/01/22 07:48:27;;;;;;;9.15;6.18;;;;;;;;;;5025799;28;20265;-81
2022/01/22 07:50:53;;;;;;;9.95;6.40;;;;;;;;;;5041812;28;20205;-82
2022/01/22 07:53:19;;;;;;;10.13;6.43;;;;;;;;;;5026782;28;20721;-81
2022/01/22 07:55:45;;;;;;;11.13;7.30;;;;;;;;;;5021074;28;20194;-81
2022/01/22 07:58:11;;;;;;;8.15;6.80;;;;;;;;;;5027561;28;20181;-82
2022/01/22 08:00:38;;;;;;;9.23;7.28;;;;;;;;;;5029263;28;20185;-81
2022/01/22 08:03:06;;;;;;;12.07;6.50;;;;;;;;;;5026516;28;20649;-81
2022/01/22 08:05:32;;;;;;;7.85;6.80;;;;;;;;;;5040463;28;20183;-80
2022/01/22 08:07:58;;;;;;;9.82;7.93;;;;;;;;;;5028408;28;20188;-80
2022/01/22 08:10:24;;;;;;;10.70;7.65;;;;;;;;;;5036642;28;20939;-81
2022/01/22 08:12:51;;;;;;;11.55;7.63;;;;;;;;;;5026978;28;20209;-81
2022/01/22 08:15:18;;;;;;;14.68;9.10;;;;;;;;;;5040809;28;20189;-81
2022/01/22 08:17:44;;;;;;;8.65;6.88;;;;;;;;;;5028185;28;20185;-80
2022/01/22 08:20:16;;;;;;;10.48;8.20;;;;;;;;;;5028799;28;20182;-80
2022/01/22 08:22:45;;;;;;;15.77;8.48;;;;;;;;;;5028583;28;20810;-81
2022/01/22 08:25:11;;;;;;;8.30;7.53;;;;;;;;;;5023797;28;20502;-81
2022/01/22 08:30:22;;;;;;;11.18;8.55;;;;;;;;;;5046750;28;20634;-82
2022/01/22 08:38:18;;;;;;;8.50;7.60;;;;;;;;;;5042306;28;20200;-81
2022/01/22 08:40:44;;;;;;;11.93;9.00;;;;;;;;;;5016222;28;20201;-81
2022/01/22 08:43:10;;;;;;;9.13;8.13;;;;;;;;;;5015048;28;20212;-81
2022/01/22 08:45:37;;;;;;;16.77;11.40;;;;;;;;;;5037130;28;20288;-82
2022/01/22 08:48:03;;;;;;;9.60;8.63;;;;;;;;;;5042483;28;20344;-81
2022/01/22 08:50:30;;;;;;;15.27;10.18;;;;;;;;;;5043117;28;20210;-81
2022/01/22 08:52:56;;;;;;;15.20;11.00;;;;;;;;;;5042649;28;20240;-81
2022/01/22 08:55:22;;;;;;;12.98;10.80;;;;;;;;;;5042307;28;20193;-80
2022/01/22 08:57:49;;;;;;;11.18;9.60;;;;;;;;;;5043493;28;20174;-81
2022/01/22 09:00:17;;;;;;;13.77;10.85;;;;;;;;;;5039149;28;20177;-81
2022/01/22 09:02:44;;;;;;;13.52;9.48;;;;;;;;;;5029397;28;20185;-81
2022/01/22 09:05:10;;;;;;;11.10;9.70;;;;;;;;;;5042182;28;20178;-81
2022/01/22 09:07:36;;;;;;;12.48;10.20;;;;;;;;;;5042264;28;20190;-81
2022/01/22 09:10:03;;;;;;;12.80;9.27;;;;;;;;;;5042307;28;20205;-82
2022/01/22 09:12:29;;;;;;;11.75;9.05;;;;;;;;;;5042912;28;20429;-82
2022/01/22 09:14:55;;;;;;;15.43;9.65;;;;;;;;;;5042715;28;20471;-81
2022/01/22 09:17:22;;;;;;;10.23;9.18;;;;;;;;;;5041117;28;20177;-82
2022/01/22 09:19:48;;;;;;;10.05;9.05;;;;;;;;;;5043878;28;20184;-81
2022/01/22 09:22:15;;;;;;;10.38;9.02;;;;;;;;;;5043814;28;20495;-81
2022/01/22 09:24:41;;;;;;;10.73;8.55;;;;;;;;;;5040855;28;20170;-81
2022/01/22 09:27:08;;;;;;;8.95;7.85;;;;;;;;;;5041443;28;20196;-81
2022/01/22 09:29:35;;;;;;;11.40;9.60;;;;;;;;;;5042151;28;20276;-81
2022/01/22 09:32:01;;;;;;;13.95;9.40;;;;;;;;;;5041557;28;20189;-81
2022/01/22 09:34:27;;;;;;;9.88;8.98;;;;;;;;;;5043448;28;20185;-81
2022/01/22 09:36:53;;;;;;;10.30;8.25;;;;;;;;;;5042320;28;20258;-81
2022/01/22 09:39:19;;;;;;;12.25;8.40;;;;;;;;;;5042146;28;20186;-81
2022/01/22 09:41:45;;;;;;;11.65;8.88;;;;;;;;;;5043007;28;20194;-82
2022/01/22 09:44:12;;;;;;;12.60;9.20;;;;;;;;;;5041162;28;20192;-82
2022/01/22 09:46:40;;;;;;;11.45;9.00;;;;;;;;;;5042612;28;20972;-82
2022/01/22 09:49:06;;;;;;;12.75;11.32;;;;;;;;;;5041945;28;20209;-82
2022/01/22 09:51:32;;;;;;;11.45;10.35;;;;;;;;;;5042385;28;20220;-80
2022/01/22 09:53:58;;;;;;;9.73;8.68;;;;;;;;;;5040917;28;20213;-80
2022/01/22 09:56:27;;;;;;;13.65;9.18;;;;;;;;;;5039613;28;20181;-81
2022/01/22 09:58:53;;;;;;;10.10;9.00;;;;;;;;;;5041364;28;20192;-81
2022/01/22 10:01:25;;;;;;;12.10;9.15;;;;;;;;;;5042928;28;20193;-81
2022/01/22 10:03:52;;;;;;;11.13;10.13;;;;;;;;;;5041898;28;20190;-81
2022/01/22 10:06:19;;;;;;;11.13;9.50;;;;;;;;;;5041496;28;20384;-81
2022/01/22 10:08:46;;;;;;;11.93;10.38;;;;;;;;;;5040392;28;20221;-81
2022/01/22 10:11:26;;;;;;;13.13;10.25;;;;;;;;;;5040460;28;20170;-81
2022/01/22 10:13:53;;;;;;;12.13;9.07;;;;;;;;;;5031082;28;20182;-81
2022/01/22 10:16:19;;;;;;;14.05;10.20;;;;;;;;;;5035129;28;20236;-82
2022/01/22 10:18:45;;;;;;;14.30;10.35;;;;;;;;;;5039270;28;20190;-81
2022/01/22 10:21:13;;;;;;;14.57;9.75;;;;;;;;;;5037617;28;20185;-81
2022/01/22 10:23:39;;;;;;;12.18;9.80;;;;;;;;;;5041813;28;20193;-81
2022/01/22 10:26:07;;;;;;;13.85;10.65;;;;;;;;;;5040395;28;20178;-81
2022/01/22 10:28:41;;;;;;;12.32;10.15;;;;;;;;;;5039646;28;20558;-81
2022/01/22 10:31:10;;;;;;;10.95;9.85;;;;;;;;;;5041274;28;20209;-81
2022/01/22 10:33:36;;;;;;;16.63;10.88;;;;;;;;;;5042171;28;20178;-80
2022/01/22 10:36:23;;;;;;;11.88;9.98;;;;;;;;;;5041086;28;20277;-80
2022/01/22 10:38:50;;;;;;;12.45;10.38;;;;;;;;;;5041157;28;20228;-81
2022/01/22 10:41:17;;;;;;;12.80;10.82;;;;;;;;;;5040629;28;20189;-81
2022/01/22 10:43:54;;;;;;;15.57;10.45;;;;;;;;;;5040786;28;20683;-81
2022/01/22 10:48:58;;;;;;;11.82;10.18;;;;;;;;;;5042536;28;20201;-81
2022/01/22 10:51:25;;;;;;;13.98;9.20;;;;;;;;;;5056334;28;20170;-81
2022/01/22 10:54:03;;;;;;;15.50;10.50;;;;;;;;;;5039706;28;20182;-81
2022/01/22 10:56:30;;;;;;;10.70;9.60;;;;;;;;;;5038241;28;20213;-80
2022/01/22 10:59:10;;;;;;;12.35;9.38;;;;;;;;;;5040346;28;20190;-82
2022/01/22 11:01:52;;;;;;;11.68;8.52;;;;;;;;;;5041075;28;20258;-81
2022/01/22 11:04:22;;;;;;;13.60;9.82;;;;;;;;;;5026825;28;20182;-81
2022/01/22 11:06:51;;;;;;;10.57;9.57;;;;;;;;;;5042537;28;20166;-81
2022/01/22 11:09:18;;;;;;;14.32;10.90;;;;;;;;;;5035674;28;20205;-81
2022/01/22 11:11:44;;;;;;;14.32;10.15;;;;;;;;;;5037332;28;20217;-81
2022/01/22 11:14:10;;;;;;;10.52;9.43;;;;;;;;;;5040316;28;20178;-81
2022/01/22 11:16:40;;;;;;;12.75;10.25;;;;;;;;;;5039991;28;20170;-81
2022/01/22 11:19:08;;;;;;;10.75;9.45;;;;;;;;;;5041345;28;20528;-81
2022/01/22 11:21:36;;;;;;;12.95;9.90;;;;;;;;;;5039263;28;20212;-80
2022/01/22 11:24:02;;;;;;;11.82;8.65;;;;;;;;;;5040361;28;20181;-81
2022/01/22 11:26:29;;;;;;;13.68;10.13;;;;;;;;;;5041100;28;20200;-81
2022/01/22 11:28:55;;;;;;;13.00;10.13;;;;;;;;;;5041782;28;20288;-81
2022/01/22 11:31:24;;;;;;;15.85;10.18;;;;;;;;;;5040937;28;20189;-81
2022/01/22 11:33:51;;;;;;;11.82;10.45;;;;;;;;;;5040534;28;20198;-81
2022/01/22 11:36:36;;;;;;;11.50;9.45;;;;;;;;;;5034514;28;20258;-80
2022/01/22 11:39:03;;;;;;;12.63;10.43;;;;;;;;;;5044517;28;20198;-81
2022/01/22 11:41:29;;;;;;;13.68;9.95;;;;;;;;;;5043689;28;20185;-81
2022/01/22 11:44:19;;;;;;;12.63;10.60;;;;;;;;;;5042010;28;20677;-81
2022/01/22 11:46:45;;;;;;;12.55;9.90;;;;;;;;;;5044483;28;20222;-81
2022/01/22 11:49:26;;;;;;;11.75;10.23;;;;;;;;;;5045350;28;20209;-81
2022/01/22 11:51:53;;;;;;;15.70;11.85;;;;;;;;;;5055157;28;20182;-80
2022/01/22 11:54:21;;;;;;;15.00;10.45;;;;;;;;;;5030457;28;20179;-82
2022/01/22 11:56:47;;;;;;;10.98;9.02;;;;;;;;;;5041043;28;20185;-80
2022/01/22 11:59:19;;;;;;;12.50;9.75;;;;;;;;;;5044810;28;20182;-80
2022/01/22 12:01:50;;;;;;;10.50;9.43;;;;;;;;;;5043571;28;20194;-81
2022/01/22 12:04:16;;;;;;;13.65;12.25;;;;;;;;;;5044277;28;20185;-81
2022/01/22 12:07:03;;;;;;;12.48;10.27;;;;;;;;;;5032995;28;20190;-81
2022/01/22 12:09:32;;;;;;;15.90;9.60;;;;;;;;;;5042544;28;20197;-81
2022/01/22 12:14:43;;;;;;;14.82;11.15;;;;;;;;;;5029037;28;20313;-80
2022/01/22 12:17:14;;;;;;;16.13;10.38;;;;;;;;;;5035519;28;20213;-80
2022/01/22 12:19:52;;;;;;;9.70;8.70;;;;;;;;;;5037147;28;21145;-80
2022/01/22 12:22:31;;;;;;;10.05;9.00;;;;;;;;;;5041472;28;20197;-81
2022/01/22 12:24:58;;;;;;;11.52;9.88;;;;;;;;;;5029189;28;20178;-81
2022/01/22 12:27:44;;;;;;;14.10;9.80;;;;;;;;;;5042211;28;20245;-81
2022/01/22 12:30:10;;;;;;;10.35;9.20;;;;;;;;;;5055884;28;20205;-81
2022/01/22 12:32:44;;;;;;;12.68;10.13;;;;;;;;;;5039577;28;20269;-81
2022/01/22 12:35:13;;;;;;;11.00;9.77;;;;;;;;;;5044763;28;20185;-81
2022/01/22 12:37:42;;;;;;;11.55;10.40;;;;;;;;;;5043292;28;20186;-81
2022/01/22 12:40:09;;;;;;;14.52;11.20;;;;;;;;;;5035584;28;20207;-80
2022/01/22 12:42:54;;;;;;;14.52;11.13;;;;;;;;;;5043811;28;20205;-81
2022/01/22 12:45:22;;;;;;;16.55;10.55;;;;;;;;;;5054246;28;20208;-81
2022/01/22 12:47:50;;;;;;;13.07;10.20;;;;;;;;;;5044048;28;20224;-81
2022/01/22 12:50:16;;;;;;;16.48;11.10;;;;;;;;;;5027089;28;20221;-80
2022/01/22 12:52:46;;;;;;;13.65;10.77;;;;;;;;;;5027644;28;20239;-80
2022/01/22 12:55:22;;;;;;;14.80;11.63;;;;;;;;;;5030752;28;20174;-81
2022/01/22 12:57:48;;;;;;;16.70;11.88;;;;;;;;;;5032434;28;20177;-80
2022/01/22 13:00:17;;;;;;;14.07;11.18;;;;;;;;;;5026078;28;20214;-79
2022/01/22 13:02:47;;;;;;;13.88;10.20;;;;;;;;;;5044132;28;20201;-80
2022/01/22 13:05:20;;;;;;;12.30;9.60;;;;;;;;;;5019504;28;20193;-80
2022/01/22 13:07:54;;;;;;;11.30;10.00;;;;;;;;;;5028245;28;20201;-81
2022/01/22 13:10:23;;;;;;;11.45;9.75;;;;;;;;;;5046577;28;20212;-80
2022/01/22 13:12:49;;;;;;;11.23;9.75;;;;;;;;;;5024976;28;20216;-81
2022/01/22 13:15:16;;;;;;;13.02;10.13;;;;;;;;;;5045951;28;20261;-81
2022/01/22 13:17:51;;;;;;;11.07;9.30;;;;;;;;;;5046638;28;20206;-81
2022/01/22 13:20:24;;;;;;;14.70;10.63;;;;;;;;;;5026426;28;20185;-80
2022/01/22 13:22:50;;;;;;;12.32;10.60;;;;;;;;;;5018162;28;20650;-80
2022/01/22 13:25:16;;;;;;;11.00;9.63;;;;;;;;;;5026642;28;20192;-80
2022/01/22 13:27:44;;;;;;;12.00;10.32;;;;;;;;;;5044649;28;20177;-81
2022/01/22 13:30:13;;;;;;;12.90;10.02;;;;;;;;;;5026965;28;20205;-81
2022/01/22 13:32:54;;;;;;;14.07;10.25;;;;;;;;;;5044786;28;20188;-81
2022/01/22 13:41:03;;;;;;;11.32;10.25;;;;;;;;;;5038551;28;20189;-82
2022/01/22 13:49:04;;;;;;;13.50;11.57;;;;;;;;;;5041389;28;20235;-81
2022/01/22 13:51:31;;;;;;;13.57;11.45;;;;;;;;;;5042108;28;20184;-80
2022/01/22 13:53:57;;;;;;;13.90;11.20;;;;;;;;;;5041199;28;20630;-80
2022/01/22 13:56:44;;;;;;;16.88;11.77;;;;;;;;;;5040013;28;20707;-79
2022/01/22 13:59:19;;;;;;;16.75;11.43;;;;;;;;;;5041093;28;20239;-80
2022/01/22 14:02:04;;;;;;;17.25;12.10;;;;;;;;;;5038946;28;20178;-81
2022/01/22 14:04:43;;;;;;;13.45;12.00;;;;;;;;;;5036318;28;20194;-80
2022/01/22 14:07:13;;;;;;;14.80;12.02;;;;;;;;;;5041093;28;20231;-80
2022/01/22 14:09:39;;;;;;;16.02;12.65;;;;;;;;;;5039372;28;20288;-79
2022/01/22 14:12:05;;;;;;;14.02;11.65;;;;;;;;;;5041269;28;20267;-82
2022/01/22 14:14:51;;;;;;;20.23;14.35;;;;;;;;;;5041897;28;20204;-78
2022/01/22 14:17:17;;;;;;;14.50;11.50;;;;;;;;;;5040538;28;20182;-80
2022/01/22 14:19:43;;;;;;;18.02;11.73;;;;;;;;;;5040425;28;20208;-80
2022/01/22 14:22:09;;;;;;;15.15;12.52;;;;;;;;;;5040881;28;20188;-80
2022/01/22 14:24:35;;;;;;;13.02;11.02;;;;;;;;;;5034159;28;20268;-79
2022/01/22 14:27:01;;;;;;;13.57;11.70;;;;;;;;;;5043172;28;20181;-80
2022/01/22 14:29:27;;;;;;;13.48;10.38;;;;;;;;;;5041884;28;20471;-81
2022/01/22 14:31:57;;;;;;;14.47;10.60;;;;;;;;;;5041572;28;20199;-80
2022/01/22 14:34:30;;;;;;;12.32;11.00;;;;;;;;;;5041743;28;20965;-81
2022/01/22 14:36:56;;;;;;;13.23;11.85;;;;;;;;;;5041527;28;20201;-80
2022/01/22 14:45:06;;;;;;;16.15;12.40;;;;;;;;;;5000839;28;20644;-81
2022/01/22 14:47:32;;;;;;;16.10;12.77;;;;;;;;;;5002562;28;20233;-81
2022/01/22 14:50:01;;;;;;;16.27;13.43;;;;;;;;;;4983877;28;20270;-80
2022/01/22 14:52:28;;;;;;;13.40;10.88;;;;;;;;;;5002003;28;20711;-81
2022/01/22 14:54:58;;;;;;;13.88;11.13;;;;;;;;;;4995832;28;20180;-80
2022/01/22 14:57:25;;;;;;;14.27;12.85;;;;;;;;;;5001136;28;20198;-80
2022/01/22 14:59:51;;;;;;;18.50;13.15;;;;;;;;;;5003213;28;20207;-80
2022/01/22 15:02:18;;;;;;;12.70;11.38;;;;;;;;;;5001045;28;20195;-81
2022/01/22 15:04:44;;;;;;;15.43;13.50;;;;;;;;;;4982867;28;20183;-80
2022/01/22 15:07:11;;;;;;;15.05;11.52;;;;;;;;;;4996512;28;20221;-80
2022/01/22 15:09:37;;;;;;;15.50;11.80;;;;;;;;;;4983875;28;20199;-80
2022/01/22 15:12:03;;;;;;;12.65;11.23;;;;;;;;;;5003043;28;20293;-81
2022/01/22 15:14:30;;;;;;;15.02;13.43;;;;;;;;;;5003394;28;20198;-80
2022/01/22 15:17:51;;;;;;;13.35;10.98;;;;;;;;;;4985320;28;20179;-81
2022/01/22 15:19:50;;;;;;;12.13;10.82;;;;;;;;;;5037350;28;20568;-81
2022/01/22 15:22:17;;;;;;;16.30;11.73;;;;;;;;;;5045595;28;20271;-80
2022/01/22 15:24:44;;;;;;;13.45;11.88;;;;;;;;;;5041697;28;20646;-78
2022/01/22 15:27:12;;;;;;;14.93;12.13;;;;;;;;;;5042598;28;20178;-80
2022/01/22 15:35:09;;;;;;;16.48;12.38;;;;;;;;;;5046027;28;20235;-79
2022/01/22 15:37:36;;;;;;;16.05;14.35;;;;;;;;;;5044204;28;20775;-79
2022/01/22 15:40:04;;;;;;;20.70;14.50;;;;;;;;;;5045860;28;20181;-80
2022/01/22 15:42:30;;;;;;;19.17;15.98;;;;;;;;;;5046942;28;20170;-79
2022/01/22 15:44:59;;;;;;;23.80;16.60;;;;;;;;;;5045294;28;20436;-80
2022/01/22 15:47:25;;;;;;;24.83;16.25;;;;;;;;;;5042865;28;20228;-78
2022/01/22 15:49:56;;;;;;;16.88;14.00;;;;;;;;;;5044191;28;20269;-81
2022/01/22 15:52:22;;;;;;;15.38;11.70;;;;;;;;;;5044450;28;20180;-81
2022/01/22 15:54:48;;;;;;;11.98;10.30;;;;;;;;;;5044129;28;20182;-82
2022/01/22 15:57:15;;;;;;;17.83;11.75;;;;;;;;;;5044922;28;20181;-80
2022/01/22 15:59:41;;;;;;;14.40;11.75;;;;;;;;;;5045317;28;20181;-80
2022/01/22 16:02:07;;;;;;;19.90;12.98;;;;;;;;;;5045009;28;20189;-80
2022/01/22 16:04:34;;;;;;;14.63;11.77;;;;;;;;;;5043867;28;20190;-80
2022/01/22 16:07:17;;;;;;;14.18;11.88;;;;;;;;;;5044581;28;20234;-81
2022/01/22 16:09:43;;;;;;;14.15;12.60;;;;;;;;;;5040982;28;20212;-81
2022/01/22 16:12:09;;;;;;;14.18;12.63;;;;;;;;;;5045101;28;20181;-81
2022/01/22 16:14:35;;;;;;;14.38;12.65;;;;;;;;;;5043402;28;20197;-81
2022/01/22 16:17:01;;;;;;;17.83;12.33;;;;;;;;;;5043417;28;20178;-80
2022/01/22 16:19:27;;;;;;;14.95;12.95;;;;;;;;;;5043865;28;20459;-81
2022/01/22 16:21:55;;;;;;;12.73;10.73;;;;;;;;;;5043863;28;20189;-80
2022/01/22 16:24:21;;;;;;;16.20;11.30;;;;;;;;;;5042976;28;20452;-80
2022/01/22 16:26:47;;;;;;;18.88;13.27;;;;;;;;;;5041641;28;20232;-80
2022/01/22 16:29:14;;;;;;;14.27;12.30;;;;;;;;;;5044693;28;20201;-80
2022/01/22 16:31:40;;;;;;;15.20;11.40;;;;;;;;;;5045102;28;20181;-80
2022/01/22 16:34:07;;;;;;;16.17;11.95;;;;;;;;;;5043476;28;20200;-81
2022/01/22 16:36:34;;;;;;;15.15;12.00;;;;;;;;;;5045758;28;20166;-80